Details From EPKK - Krakow-John Paul II
To EPWA - Warsaw Frederic Chopin
Flight Number -
Tags generated
Created
Modified
Stats Distance 133 nm / 246 km
Max Altitude 14,900 ft / 4,542 m
Waypoints 3
Social Downloads 2
Likes 0
Share

Download

Looking for another format? Having issues loading an existing format? Contact us
Advertisement - Login to hide

Notes

Basic altitude profile: - Ascent Rate: 2500ft/min - Ascent Speed: 250kts - Cruise Altitude: 25000ft - Cruise Speed: 400kts - Descent Rate: 1500ft/min - Descent Speed: 180kts Options: - Use NATs: no - Use PACOTS: no - Use low airways: yes - Use high airways: yes

Route

EPKK OBALU EPWA

ID Type Via Altitude (ft/m) Position (lat/lon) Dist (leg/tot) Name
O EPKK APT - 0 / 0 50.07780 / 19.78550 - / 0 nm Krakow-John Paul II
OBALU FIX - 14,900 / 4,542 50.71080 / 20.10940 39 / 39 nm
O EPWA APT - 0 / 0 52.16510 / 20.96700 93 / 133 nm Warsaw Frederic Chopin

Altitude Profile

Advertisement - Login to hide

EPKK

Details ICAO EPKK (KRK)
Name Krakow-John Paul II
Region Poland
Timezone Europe/Warsaw (UTC+2.0)
Stats Elevation 791 ft / 241 m (AMSL)
Location 50.077800° 19.785500°
Runways 1
Magnetic Variation 6.009° E

METAR

EPKK 190900Z 06005KT 030V130 CAVOK 25/13 Q1021

Decode

TAF

TAF EPKK 190830Z 1909/2009 07007KT CAVOK= TAF AMD EPRZ 190831Z 1908/2006 02006KT CAVOK

Decode

Departure Runways

ID Width Length Bearing (true/mag) Surface Threshold Overrun Markings Lighting
07 197 ft / 60 m 8,352 ft / 2,546 m 77.76° / 71.75° CONCRETE 0 ft / 0 m 0 ft / 0 m PREC-APP CENTERLINE EDGE THRESHOLD ALSF-I REIL-OMNI
25 197 ft / 60 m 8,352 ft / 2,546 m 257.78° / 251.77° CONCRETE 778 ft / 237 m 0 ft / 0 m PREC-APP CENTERLINE EDGE THRESHOLD ALSF-II TDZ REIL-OMNI

EPWA

Details ICAO EPWA (WAW)
Name Warsaw Frederic Chopin
Region Poland
Timezone Europe/Warsaw (UTC+2.0)
Stats Elevation 362 ft / 110 m (AMSL)
Location 52.165100° 20.967000°
Runways 2
Magnetic Variation 6.647° E

METAR

EPWA 190900Z VRB03KT CAVOK 25/12 Q1022 NOSIG

Decode

TAF

TAF EPWA 190830Z 1909/2009 VRB03KT CAVOK BECMG 1909/1911 34010KT

Decode

Destination Runways

ID Width Length Bearing (true/mag) Surface Threshold Overrun Markings Lighting
11 164 ft / 50 m 9,166 ft / 2,794 m 114.57° / 107.93° ASPHALT 0 ft / 0 m 492 ft / 150 m PREC-APP CENTERLINE EDGE THRESHOLD ALSF-II TDZ REIL-OMNI
15 197 ft / 60 m 12,093 ft / 3,686 m 151.80° / 145.15° ASPHALT 0 ft / 0 m 144 ft / 44 m PREC-APP CENTERLINE EDGE THRESHOLD ALSF-I REIL-OMNI
29 164 ft / 50 m 9,166 ft / 2,794 m 294.60° / 287.96° ASPHALT 1,617 ft / 493 m 102 ft / 31 m PREC-APP CENTERLINE EDGE THRESHOLD ALSF-I REIL-OMNI
33 197 ft / 60 m 12,093 ft / 3,686 m 331.82° / 325.17° ASPHALT 2,159 ft / 658 m 148 ft / 45 m PREC-APP CENTERLINE EDGE THRESHOLD ALSF-II TDZ REIL-OMNI

Approach Navaids

Runway Type Ident Frequency Range Bearing (true/mag) Slope Elevation
11 DME WAS 109.90 MHz 18 nm / 33 km - - 394 ft / 120 m (AMSL)
11 LOC-ILS WAS 109.90 MHz 18 nm / 33 km 114.59° / 107.94 ° - 362 ft / 110 m (AMSL)
11 GS WAS 109.90 MHz 10 nm / 19 km 114.59° / 107.94 ° 3.00° 362 ft / 110 m (AMSL)
33 GS WA 110.30 MHz 10 nm / 19 km 331.82° / 325.17 ° 3.00° 362 ft / 110 m (AMSL)
33 DME WA 110.30 MHz 18 nm / 33 km - - 394 ft / 120 m (AMSL)
33 LOC-ILS WA 110.30 MHz 18 nm / 33 km 331.82° / 325.17 ° - 362 ft / 110 m (AMSL)

Popular Alternatives